sensor_id;sensor_type;location;lat;lon;timestamp;pressure;altitude;pressure_sealevel;temperature;humidity
54248;BME280;40161;39.768;2.722;2023-03-16T00:00:24;101412.47;;;10.85;71.25
54248;BME280;40161;39.768;2.722;2023-03-16T00:02:49;101402.44;;;10.49;74.37
54248;BME280;40161;39.768;2.722;2023-03-16T00:05:15;101390.91;;;10.43;73.45
54248;BME280;40161;39.768;2.722;2023-03-16T00:07:41;101417.47;;;10.67;72.37
54248;BME280;40161;39.768;2.722;2023-03-16T00:10:09;101396.03;;;10.45;72.99
54248;BME280;40161;39.768;2.722;2023-03-16T00:12:37;101375.63;;;10.18;74.12
54248;BME280;40161;39.768;2.722;2023-03-16T00:15:03;101409.00;;;10.32;76.06
54248;BME280;40161;39.768;2.722;2023-03-16T00:17:29;101409.00;;;10.32;75.83
54248;BME280;40161;39.768;2.722;2023-03-16T00:19:55;101382.53;;;10.52;75.14
54248;BME280;40161;39.768;2.722;2023-03-16T00:22:27;101371.13;;;10.66;73.84
54248;BME280;40161;39.768;2.722;2023-03-16T00:24:54;101408.94;;;10.85;73.70
54248;BME280;40161;39.768;2.722;2023-03-16T00:27:20;101390.69;;;10.92;72.30
54248;BME280;40161;39.768;2.722;2023-03-16T00:29:48;101399.91;;;11.00;73.01
54248;BME280;40161;39.768;2.722;2023-03-16T00:32:14;101414.81;;;10.71;73.17
54248;BME280;40161;39.768;2.722;2023-03-16T00:34:41;101402.03;;;10.22;75.38
54248;BME280;40161;39.768;2.722;2023-03-16T00:37:07;101407.44;;;10.07;76.28
54248;BME280;40161;39.768;2.722;2023-03-16T00:39:32;101395.00;;;10.09;76.21
54248;BME280;40161;39.768;2.722;2023-03-16T00:42:00;101403.31;;;10.13;76.51
54248;BME280;40161;39.768;2.722;2023-03-16T00:44:26;101399.31;;;10.10;76.55
54248;BME280;40161;39.768;2.722;2023-03-16T00:46:52;101404.44;;;10.36;75.95
54248;BME280;40161;39.768;2.722;2023-03-16T00:49:17;101395.31;;;10.60;74.40
54248;BME280;40161;39.768;2.722;2023-03-16T00:51:43;101389.94;;;10.80;73.21
54248;BME280;40161;39.768;2.722;2023-03-16T00:54:10;101391.47;;;10.77;72.78
54248;BME280;40161;39.768;2.722;2023-03-16T00:56:36;101408.22;;;10.88;72.46
54248;BME280;40161;39.768;2.722;2023-03-16T00:59:02;101400.50;;;10.50;72.80
54248;BME280;40161;39.768;2.722;2023-03-16T01:01:27;101387.31;;;10.15;75.47
54248;BME280;40161;39.768;2.722;2023-03-16T01:03:53;101386.81;;;10.25;75.51
54248;BME280;40161;39.768;2.722;2023-03-16T01:06:19;101397.66;;;10.46;74.77
54248;BME280;40161;39.768;2.722;2023-03-16T01:08:47;101378.66;;;10.53;73.71
54248;BME280;40161;39.768;2.722;2023-03-16T01:11:15;101389.44;;;10.46;73.48
54248;BME280;40161;39.768;2.722;2023-03-16T01:13:42;101392.19;;;10.21;74.88
54248;BME280;40161;39.768;2.722;2023-03-16T01:16:08;101384.72;;;10.06;76.11
54248;BME280;40161;39.768;2.722;2023-03-16T01:18:34;101392.50;;;9.92;77.10
54248;BME280;40161;39.768;2.722;2023-03-16T01:21:00;101345.25;;;9.58;77.61
54248;BME280;40161;39.768;2.722;2023-03-16T01:23:27;101383.72;;;9.86;77.75
54248;BME280;40161;39.768;2.722;2023-03-16T01:25:55;101378.00;;;9.79;77.90
54248;BME280;40161;39.768;2.722;2023-03-16T01:28:22;101374.81;;;9.89;77.48
54248;BME280;40161;39.768;2.722;2023-03-16T01:30:50;101386.94;;;10.29;76.27
54248;BME280;40161;39.768;2.722;2023-03-16T01:33:19;101372.34;;;10.12;75.27
54248;BME280;40161;39.768;2.722;2023-03-16T01:36:00;101374.94;;;10.33;76.08
54248;BME280;40161;39.768;2.722;2023-03-16T01:38:26;101371.84;;;10.35;74.64
54248;BME280;40161;39.768;2.722;2023-03-16T01:40:53;101365.03;;;10.57;73.40
54248;BME280;40161;39.768;2.722;2023-03-16T01:43:21;101355.78;;;10.49;72.70
54248;BME280;40161;39.768;2.722;2023-03-16T01:48:55;101309.53;;;9.55;76.48
54248;BME280;40161;39.768;2.722;2023-03-16T01:51:27;101341.03;;;9.61;78.24
54248;BME280;40161;39.768;2.722;2023-03-16T01:54:01;101320.97;;;9.44;77.71
54248;BME280;40161;39.768;2.722;2023-03-16T01:56:34;101344.47;;;9.58;77.19
54248;BME280;40161;39.768;2.722;2023-03-16T01:59:07;101332.34;;;9.59;78.13
54248;BME280;40161;39.768;2.722;2023-03-16T02:01:34;101349.47;;;9.56;78.16
54248;BME280;40161;39.768;2.722;2023-03-16T02:04:21;101316.84;;;9.14;80.30
54248;BME280;40161;39.768;2.722;2023-03-16T02:06:48;101341.16;;;9.64;78.67
54248;BME280;40161;39.768;2.722;2023-03-16T02:09:15;101339.38;;;9.96;77.29
54248;BME280;40161;39.768;2.722;2023-03-16T02:11:42;101294.78;;;9.59;76.74
54248;BME280;40161;39.768;2.722;2023-03-16T02:14:09;101337.97;;;10.03;76.77
54248;BME280;40161;39.768;2.722;2023-03-16T02:16:36;101319.47;;;9.99;76.61
54248;BME280;40161;39.768;2.722;2023-03-16T02:19:02;101335.56;;;10.01;75.50
54248;BME280;40161;39.768;2.722;2023-03-16T02:21:53;101326.56;;;10.01;75.84
54248;BME280;40161;39.768;2.722;2023-03-16T02:24:22;101327.59;;;10.08;74.84
54248;BME280;40161;39.768;2.722;2023-03-16T02:26:54;101330.91;;;10.02;74.01
54248;BME280;40161;39.768;2.722;2023-03-16T02:32:10;101318.31;;;9.48;78.19
54248;BME280;40161;39.768;2.722;2023-03-16T02:34:37;101318.06;;;9.53;78.66
54248;BME280;40161;39.768;2.722;2023-03-16T02:37:03;101318.69;;;9.46;77.96
54248;BME280;40161;39.768;2.722;2023-03-16T02:39:30;101310.78;;;9.45;77.92
54248;BME280;40161;39.768;2.722;2023-03-16T02:41:56;101324.50;;;9.45;79.74
54248;BME280;40161;39.768;2.722;2023-03-16T02:44:27;101308.94;;;9.49;79.12
54248;BME280;40161;39.768;2.722;2023-03-16T02:47:01;101330.06;;;9.61;77.96
54248;BME280;40161;39.768;2.722;2023-03-16T02:49:33;101330.81;;;9.86;77.83
54248;BME280;40161;39.768;2.722;2023-03-16T02:52:01;101316.31;;;9.85;75.89
54248;BME280;40161;39.768;2.722;2023-03-16T02:54:27;101334.19;;;10.07;76.72
54248;BME280;40161;39.768;2.722;2023-03-16T02:56:52;101323.16;;;10.32;75.18
54248;BME280;40161;39.768;2.722;2023-03-16T02:59:18;101325.28;;;10.10;73.88
54248;BME280;40161;39.768;2.722;2023-03-16T03:01:43;101307.69;;;9.71;75.28
54248;BME280;40161;39.768;2.722;2023-03-16T03:04:09;101310.78;;;9.45;76.22
54248;BME280;40161;39.768;2.722;2023-03-16T03:06:34;101323.22;;;9.42;77.69
54248;BME280;40161;39.768;2.722;2023-03-16T03:09:00;101325.84;;;9.39;78.36
54248;BME280;40161;39.768;2.722;2023-03-16T03:11:26;101313.66;;;9.24;79.50
54248;BME280;40161;39.768;2.722;2023-03-16T03:13:53;101311.25;;;9.47;77.93
54248;BME280;40161;39.768;2.722;2023-03-16T03:16:19;101273.72;;;9.11;79.01
54248;BME280;40161;39.768;2.722;2023-03-16T03:18:46;101321.81;;;9.73;77.50
54248;BME280;40161;39.768;2.722;2023-03-16T03:21:11;101318.69;;;9.34;77.20
54248;BME280;40161;39.768;2.722;2023-03-16T03:23:37;101324.97;;;9.22;79.69
54248;BME280;40161;39.768;2.722;2023-03-16T03:26:02;101320.84;;;9.16;79.16
54248;BME280;40161;39.768;2.722;2023-03-16T03:28:29;101280.44;;;9.13;79.02
54248;BME280;40161;39.768;2.722;2023-03-16T03:30:55;101269.13;;;9.39;77.64
54248;BME280;40161;39.768;2.722;2023-03-16T03:33:22;101329.47;;;9.80;77.07
54248;BME280;40161;39.768;2.722;2023-03-16T03:35:53;101321.84;;;9.48;75.95
54248;BME280;40161;39.768;2.722;2023-03-16T03:38:19;101283.06;;;9.34;78.32
54248;BME280;40161;39.768;2.722;2023-03-16T03:40:49;101327.00;;;9.38;76.78
54248;BME280;40161;39.768;2.722;2023-03-16T03:43:14;101331.56;;;9.58;76.92
54248;BME280;40161;39.768;2.722;2023-03-16T03:45:40;101331.66;;;9.62;75.93
54248;BME280;40161;39.768;2.722;2023-03-16T03:48:05;101331.56;;;9.70;75.55
54248;BME280;40161;39.768;2.722;2023-03-16T03:50:31;101324.72;;;9.52;75.23
54248;BME280;40161;39.768;2.722;2023-03-16T03:52:56;101278.41;;;9.10;77.07
54248;BME280;40161;39.768;2.722;2023-03-16T03:55:22;101263.56;;;8.74;76.03
54248;BME280;40161;39.768;2.722;2023-03-16T03:57:47;101336.56;;;9.07;78.21
54248;BME280;40161;39.768;2.722;2023-03-16T04:00:13;101308.13;;;8.75;79.38
54248;BME280;40161;39.768;2.722;2023-03-16T04:02:39;101338.97;;;8.96;79.09
54248;BME280;40161;39.768;2.722;2023-03-16T04:05:05;101320.38;;;9.14;78.68
54248;BME280;40161;39.768;2.722;2023-03-16T04:07:31;101338.06;;;9.41;77.18
54248;BME280;40161;39.768;2.722;2023-03-16T04:09:57;101345.72;;;9.60;77.12
54248;BME280;40161;39.768;2.722;2023-03-16T04:12:23;101346.53;;;9.61;75.25
54248;BME280;40161;39.768;2.722;2023-03-16T04:14:48;101309.19;;;9.44;75.62
54248;BME280;40161;39.768;2.722;2023-03-16T04:17:15;101340.00;;;9.65;75.62
54248;BME280;40161;39.768;2.722;2023-03-16T04:19:41;101334.97;;;9.67;75.50
54248;BME280;40161;39.768;2.722;2023-03-16T04:22:07;101356.41;;;9.90;74.09
54248;BME280;40161;39.768;2.722;2023-03-16T04:24:33;101337.59;;;9.76;74.93
54248;BME280;40161;39.768;2.722;2023-03-16T04:26:59;101350.59;;;9.91;73.55
54248;BME280;40161;39.768;2.722;2023-03-16T04:29:26;101342.53;;;9.70;73.80
54248;BME280;40161;39.768;2.722;2023-03-16T04:31:52;101300.13;;;8.70;76.38
54248;BME280;40161;39.768;2.722;2023-03-16T04:34:19;101323.41;;;8.76;78.88
54248;BME280;40161;39.768;2.722;2023-03-16T04:36:50;101315.19;;;8.76;76.95
54248;BME280;40161;39.768;2.722;2023-03-16T04:39:16;101294.72;;;8.49;79.17
54248;BME280;40161;39.768;2.722;2023-03-16T04:41:42;101318.16;;;8.71;78.68
54248;BME280;40161;39.768;2.722;2023-03-16T04:44:08;101298.13;;;8.46;78.54
54248;BME280;40161;39.768;2.722;2023-03-16T04:46:34;101266.38;;;8.32;79.25
54248;BME280;40161;39.768;2.722;2023-03-16T04:49:00;101333.56;;;8.75;79.41
54248;BME280;40161;39.768;2.722;2023-03-16T04:51:26;101318.19;;;8.83;78.74
54248;BME280;40161;39.768;2.722;2023-03-16T04:53:52;101304.13;;;8.72;79.05
54248;BME280;40161;39.768;2.722;2023-03-16T04:56:18;101316.38;;;9.12;78.86
54248;BME280;40161;39.768;2.722;2023-03-16T04:58:45;101302.94;;;9.07;77.45
54248;BME280;40161;39.768;2.722;2023-03-16T05:01:11;101334.75;;;9.36;77.03
54248;BME280;40161;39.768;2.722;2023-03-16T05:03:37;101323.59;;;9.16;76.61
54248;BME280;40161;39.768;2.722;2023-03-16T05:06:03;101333.25;;;9.01;77.81
54248;BME280;40161;39.768;2.722;2023-03-16T05:08:29;101335.88;;;8.52;79.45
54248;BME280;40161;39.768;2.722;2023-03-16T05:10:56;101346.94;;;8.44;81.12
54248;BME280;40161;39.768;2.722;2023-03-16T05:13:22;101325.41;;;8.54;81.52
54248;BME280;40161;39.768;2.722;2023-03-16T05:15:48;101331.59;;;8.64;79.98
54248;BME280;40161;39.768;2.722;2023-03-16T05:18:13;101329.13;;;8.83;79.59
54248;BME280;40161;39.768;2.722;2023-03-16T05:20:39;101331.03;;;8.70;78.92
54248;BME280;40161;39.768;2.722;2023-03-16T05:23:06;101331.81;;;8.59;79.99
54248;BME280;40161;39.768;2.722;2023-03-16T05:25:33;101330.91;;;8.67;80.05
54248;BME280;40161;39.768;2.722;2023-03-16T05:27:58;101331.53;;;8.85;80.29
54248;BME280;40161;39.768;2.722;2023-03-16T05:30:24;101319.84;;;8.63;79.87
54248;BME280;40161;39.768;2.722;2023-03-16T05:32:50;101327.84;;;8.80;79.88
54248;BME280;40161;39.768;2.722;2023-03-16T05:35:16;101317.19;;;9.00;79.24
54248;BME280;40161;39.768;2.722;2023-03-16T05:37:42;101315.22;;;9.00;76.81
54248;BME280;40161;39.768;2.722;2023-03-16T05:40:11;101322.03;;;8.70;78.32
54248;BME280;40161;39.768;2.722;2023-03-16T05:42:42;101321.34;;;8.61;79.93
54248;BME280;40161;39.768;2.722;2023-03-16T05:45:08;101324.09;;;8.73;81.29
54248;BME280;40161;39.768;2.722;2023-03-16T05:47:33;101280.75;;;8.29;80.10
54248;BME280;40161;39.768;2.722;2023-03-16T05:50:02;101334.47;;;8.79;80.99
54248;BME280;40161;39.768;2.722;2023-03-16T05:52:28;101327.09;;;9.04;79.30
54248;BME280;40161;39.768;2.722;2023-03-16T05:54:54;101335.56;;;9.24;78.21
54248;BME280;40161;39.768;2.722;2023-03-16T05:57:19;101329.63;;;9.10;77.56
54248;BME280;40161;39.768;2.722;2023-03-16T05:59:45;101325.06;;;9.14;78.23
54248;BME280;40161;39.768;2.722;2023-03-16T06:02:10;101311.59;;;9.09;76.39
54248;BME280;40161;39.768;2.722;2023-03-16T06:04:36;101326.31;;;8.92;76.86
54248;BME280;40161;39.768;2.722;2023-03-16T06:07:01;101328.81;;;8.85;79.44
54248;BME280;40161;39.768;2.722;2023-03-16T06:09:27;101312.19;;;9.02;79.20
54248;BME280;40161;39.768;2.722;2023-03-16T06:11:52;101318.78;;;9.13;78.43
54248;BME280;40161;39.768;2.722;2023-03-16T06:14:18;101321.75;;;8.50;78.86
54248;BME280;40161;39.768;2.722;2023-03-16T06:16:44;101315.47;;;8.29;81.87
54248;BME280;40161;39.768;2.722;2023-03-16T06:19:09;101323.59;;;8.59;80.78
54248;BME280;40161;39.768;2.722;2023-03-16T06:21:35;101322.56;;;8.51;80.31
54248;BME280;40161;39.768;2.722;2023-03-16T06:24:00;101321.56;;;8.14;83.14
54248;BME280;40161;39.768;2.722;2023-03-16T06:26:26;101326.22;;;8.34;84.05
54248;BME280;40161;39.768;2.722;2023-03-16T06:28:52;101327.25;;;8.63;82.23
54248;BME280;40161;39.768;2.722;2023-03-16T06:31:17;101325.34;;;8.75;81.04
54248;BME280;40161;39.768;2.722;2023-03-16T06:33:43;101325.75;;;8.98;78.43
54248;BME280;40161;39.768;2.722;2023-03-16T06:36:08;101321.56;;;8.68;79.56
54248;BME280;40161;39.768;2.722;2023-03-16T06:38:34;101327.97;;;8.72;81.52
54248;BME280;40161;39.768;2.722;2023-03-16T06:40:59;101331.50;;;8.72;80.98
54248;BME280;40161;39.768;2.722;2023-03-16T06:43:26;101322.50;;;8.84;80.28
54248;BME280;40161;39.768;2.722;2023-03-16T06:45:51;101336.50;;;8.70;81.37
54248;BME280;40161;39.768;2.722;2023-03-16T06:48:17;101313.13;;;8.61;80.09
54248;BME280;40161;39.768;2.722;2023-03-16T06:50:44;101328.28;;;8.70;81.57
54248;BME280;40161;39.768;2.722;2023-03-16T06:53:10;101334.16;;;8.81;81.52
54248;BME280;40161;39.768;2.722;2023-03-16T06:55:35;101330.50;;;8.89;80.83
54248;BME280;40161;39.768;2.722;2023-03-16T06:58:01;101339.19;;;8.91;81.23
54248;BME280;40161;39.768;2.722;2023-03-16T07:00:26;101349.69;;;9.01;81.75
54248;BME280;40161;39.768;2.722;2023-03-16T07:02:52;101356.88;;;9.18;80.25
54248;BME280;40161;39.768;2.722;2023-03-16T07:05:18;101358.50;;;9.19;79.74
54248;BME280;40161;39.768;2.722;2023-03-16T07:07:43;101354.34;;;9.01;79.34
54248;BME280;40161;39.768;2.722;2023-03-16T07:10:14;101366.81;;;8.98;80.01
54248;BME280;40161;39.768;2.722;2023-03-16T07:12:42;101382.56;;;9.14;80.95
54248;BME280;40161;39.768;2.722;2023-03-16T07:15:08;101383.72;;;9.13;79.95
54248;BME280;40161;39.768;2.722;2023-03-16T07:17:35;101377.78;;;9.23;79.74
54248;BME280;40161;39.768;2.722;2023-03-16T07:20:00;101381.44;;;9.27;80.83
54248;BME280;40161;39.768;2.722;2023-03-16T07:22:30;101363.41;;;9.26;80.52
54248;BME280;40161;39.768;2.722;2023-03-16T07:24:57;101383.38;;;9.39;80.21
54248;BME280;40161;39.768;2.722;2023-03-16T07:27:25;101378.84;;;9.43;80.24
54248;BME280;40161;39.768;2.722;2023-03-16T07:29:51;101375.63;;;9.41;78.73
54248;BME280;40161;39.768;2.722;2023-03-16T07:32:17;101370.63;;;9.43;80.79
54248;BME280;40161;39.768;2.722;2023-03-16T07:34:43;101368.31;;;9.45;79.18
54248;BME280;40161;39.768;2.722;2023-03-16T07:37:09;101376.56;;;9.57;80.55
54248;BME280;40161;39.768;2.722;2023-03-16T07:39:35;101377.22;;;9.42;79.22
54248;BME280;40161;39.768;2.722;2023-03-16T07:42:01;101375.38;;;9.21;82.12
54248;BME280;40161;39.768;2.722;2023-03-16T07:44:27;101363.41;;;9.26;82.45
54248;BME280;40161;39.768;2.722;2023-03-16T07:46:52;101362.41;;;9.43;82.36
54248;BME280;40161;39.768;2.722;2023-03-16T07:49:18;101381.00;;;9.62;80.79
54248;BME280;40161;39.768;2.722;2023-03-16T07:51:44;101358.94;;;9.46;80.41
54248;BME280;40161;39.768;2.722;2023-03-16T07:54:10;101379.50;;;9.52;81.92
54248;BME280;40161;39.768;2.722;2023-03-16T07:56:35;101367.03;;;9.67;81.33
54248;BME280;40161;39.768;2.722;2023-03-16T07:59:02;101386.59;;;9.78;79.28
54248;BME280;40161;39.768;2.722;2023-03-16T08:01:28;101385.31;;;9.63;81.45
54248;BME280;40161;39.768;2.722;2023-03-16T08:03:53;101386.47;;;9.74;81.05
54248;BME280;40161;39.768;2.722;2023-03-16T08:06:19;101370.47;;;9.76;80.83
54248;BME280;40161;39.768;2.722;2023-03-16T08:08:46;101377.16;;;10.03;79.08
54248;BME280;40161;39.768;2.722;2023-03-16T08:11:12;101346.53;;;10.01;77.75
54248;BME280;40161;39.768;2.722;2023-03-16T08:13:38;101374.94;;;10.33;76.89
54248;BME280;40161;39.768;2.722;2023-03-16T08:16:08;101384.13;;;10.53;76.38
54248;BME280;40161;39.768;2.722;2023-03-16T08:18:35;101392.97;;;10.75;76.20
54248;BME280;40161;39.768;2.722;2023-03-16T08:21:01;101379.16;;;10.87;74.78
54248;BME280;40161;39.768;2.722;2023-03-16T08:23:27;101387.88;;;11.05;74.24
54248;BME280;40161;39.768;2.722;2023-03-16T08:25:55;101392.13;;;11.18;73.66
54248;BME280;40161;39.768;2.722;2023-03-16T08:28:22;101390.38;;;11.26;71.10
54248;BME280;40161;39.768;2.722;2023-03-16T08:30:51;101398.69;;;11.45;69.84
54248;BME280;40161;39.768;2.722;2023-03-16T08:33:17;101383.19;;;11.53;69.15
54248;BME280;40161;39.768;2.722;2023-03-16T08:35:45;101376.84;;;11.68;68.68
54248;BME280;40161;39.768;2.722;2023-03-16T08:38:12;101395.75;;;11.85;68.06
54248;BME280;40161;39.768;2.722;2023-03-16T08:40:39;101390.06;;;11.94;67.27
54248;BME280;40161;39.768;2.722;2023-03-16T08:43:07;101392.31;;;12.08;67.28
54248;BME280;40161;39.768;2.722;2023-03-16T08:45:33;101359.13;;;12.01;66.65
54248;BME280;40161;39.768;2.722;2023-03-16T08:47:59;101375.75;;;12.24;66.11
54248;BME280;40161;39.768;2.722;2023-03-16T08:50:24;101381.66;;;12.45;64.83
54248;BME280;40161;39.768;2.722;2023-03-16T08:52:50;101378.34;;;12.55;63.96
54248;BME280;40161;39.768;2.722;2023-03-16T08:55:16;101380.50;;;12.66;62.84
54248;BME280;40161;39.768;2.722;2023-03-16T08:57:41;101382.31;;;12.77;62.43
54248;BME280;40161;39.768;2.722;2023-03-16T09:00:10;101384.59;;;12.95;60.96
54248;BME280;40161;39.768;2.722;2023-03-16T09:02:40;101372.72;;;12.91;60.88
54248;BME280;40161;39.768;2.722;2023-03-16T09:05:10;101359.88;;;12.98;60.11
54248;BME280;40161;39.768;2.722;2023-03-16T09:07:37;101388.84;;;13.35;58.03
54248;BME280;40161;39.768;2.722;2023-03-16T09:10:05;101358.34;;;13.24;57.57
54248;BME280;40161;39.768;2.722;2023-03-16T09:12:31;101391.19;;;13.59;56.99
54248;BME280;40161;39.768;2.722;2023-03-16T09:14:58;101381.16;;;13.70;56.43
54248;BME280;40161;39.768;2.722;2023-03-16T09:17:24;101340.75;;;13.59;56.64
54248;BME280;40161;39.768;2.722;2023-03-16T09:19:50;101365.09;;;13.80;56.10
54248;BME280;40161;39.768;2.722;2023-03-16T09:22:15;101374.44;;;13.98;54.26
54248;BME280;40161;39.768;2.722;2023-03-16T09:24:41;101340.84;;;13.92;52.45
54248;BME280;40161;39.768;2.722;2023-03-16T09:27:07;101368.06;;;14.24;51.35
54248;BME280;40161;39.768;2.722;2023-03-16T09:29:32;101367.84;;;14.36;51.52
54248;BME280;40161;39.768;2.722;2023-03-16T09:31:58;101366.38;;;14.46;51.46
54248;BME280;40161;39.768;2.722;2023-03-16T09:34:24;101344.31;;;14.49;48.42
54248;BME280;40161;39.768;2.722;2023-03-16T09:36:49;101356.75;;;14.66;48.95
54248;BME280;40161;39.768;2.722;2023-03-16T09:39:15;101343.78;;;14.70;48.53
54248;BME280;40161;39.768;2.722;2023-03-16T09:41:45;101369.25;;;14.90;47.74
54248;BME280;40161;39.768;2.722;2023-03-16T09:47:02;101369.41;;;15.08;46.92
54248;BME280;40161;39.768;2.722;2023-03-16T09:49:36;101371.53;;;15.26;46.59
54248;BME280;40161;39.768;2.722;2023-03-16T09:52:24;101367.66;;;15.37;46.87
54248;BME280;40161;39.768;2.722;2023-03-16T09:55:21;101331.28;;;15.28;46.60
54248;BME280;40161;39.768;2.722;2023-03-16T09:57:52;101363.09;;;15.59;46.54
54248;BME280;40161;39.768;2.722;2023-03-16T10:00:20;101364.41;;;15.73;46.37
54248;BME280;40161;39.768;2.722;2023-03-16T10:05:36;101345.06;;;15.76;46.76
54248;BME280;40161;39.768;2.722;2023-03-16T10:08:21;101332.06;;;15.87;46.27
54248;BME280;40161;39.768;2.722;2023-03-16T10:10:54;101351.06;;;15.96;45.86
54248;BME280;40161;39.768;2.722;2023-03-16T10:15:55;101311.53;;;15.96;45.57
54248;BME280;40161;39.768;2.722;2023-03-16T10:18:29;101303.25;;;15.99;45.32
54248;BME280;40161;39.768;2.722;2023-03-16T10:20:57;101302.50;;;16.09;45.52
54248;BME280;40161;39.768;2.722;2023-03-16T10:23:25;101326.72;;;16.41;44.88
54248;BME280;40161;39.768;2.722;2023-03-16T10:25:52;101310.09;;;16.37;44.99
54248;BME280;40161;39.768;2.722;2023-03-16T10:30:47;101331.94;;;16.71;44.30
54248;BME280;40161;39.768;2.722;2023-03-16T10:33:28;101330.84;;;16.87;43.76
54248;BME280;40161;39.768;2.722;2023-03-16T10:38:31;101326.06;;;16.91;43.72
54248;BME280;40161;39.768;2.722;2023-03-16T10:44:01;101292.81;;;16.98;43.34
54248;BME280;40161;39.768;2.722;2023-03-16T10:46:48;101318.94;;;17.22;43.33
54248;BME280;40161;39.768;2.722;2023-03-16T10:51:47;101286.84;;;17.24;43.71
54248;BME280;40161;39.768;2.722;2023-03-16T10:54:22;101314.94;;;17.51;43.99
54248;BME280;40161;39.768;2.722;2023-03-16T10:56:49;101305.44;;;17.52;44.41
54248;BME280;40161;39.768;2.722;2023-03-16T10:59:32;101310.16;;;17.63;44.88
54248;BME280;40161;39.768;2.722;2023-03-16T11:02:24;101306.97;;;17.68;45.26
54248;BME280;40161;39.768;2.722;2023-03-16T11:04:54;101306.97;;;17.68;45.31
54248;BME280;40161;39.768;2.722;2023-03-16T11:07:21;101291.09;;;17.68;45.11
54248;BME280;40161;39.768;2.722;2023-03-16T11:09:50;101260.22;;;17.59;45.37
54248;BME280;40161;39.768;2.722;2023-03-16T11:12:29;101287.50;;;17.86;45.66
54248;BME280;40161;39.768;2.722;2023-03-16T11:15:12;101257.00;;;17.68;45.67
54248;BME280;40161;39.768;2.722;2023-03-16T11:17:43;101295.81;;;17.89;44.71
54248;BME280;40161;39.768;2.722;2023-03-16T11:20:26;101290.28;;;17.96;45.57
54248;BME280;40161;39.768;2.722;2023-03-16T11:22:53;101271.25;;;17.88;46.85
54248;BME280;40161;39.768;2.722;2023-03-16T11:25:36;101259.38;;;17.84;46.43
54248;BME280;40161;39.768;2.722;2023-03-16T11:30:50;101283.44;;;18.12;46.50
54248;BME280;40161;39.768;2.722;2023-03-16T11:33:20;101264.44;;;18.07;45.65
54248;BME280;40161;39.768;2.722;2023-03-16T11:44:40;101265.88;;;18.33;44.84
54248;BME280;40161;39.768;2.722;2023-03-16T12:01:23;101247.81;;;18.62;43.96
54248;BME280;40161;39.768;2.722;2023-03-16T12:04:21;101252.13;;;18.67;44.00
54248;BME280;40161;39.768;2.722;2023-03-16T12:07:05;101250.56;;;18.66;45.78
54248;BME280;40161;39.768;2.722;2023-03-16T12:12:43;101250.91;;;18.75;44.51
54248;BME280;40161;39.768;2.722;2023-03-16T12:15:29;101256.47;;;18.75;45.92
54248;BME280;40161;39.768;2.722;2023-03-16T12:18:07;101240.63;;;18.72;46.94
54248;BME280;40161;39.768;2.722;2023-03-16T12:20:52;101238.22;;;18.70;45.44
54248;BME280;40161;39.768;2.722;2023-03-16T12:23:42;101245.34;;;18.75;47.05
54248;BME280;40161;39.768;2.722;2023-03-16T12:26:14;101238.59;;;18.76;46.97
54248;BME280;40161;39.768;2.722;2023-03-16T12:28:42;101227.44;;;18.80;44.90
54248;BME280;40161;39.768;2.722;2023-03-16T12:36:52;101227.38;;;18.87;44.73
54248;BME280;40161;39.768;2.722;2023-03-16T12:39:47;101218.16;;;18.97;45.32
54248;BME280;40161;39.768;2.722;2023-03-16T12:42:33;101215.47;;;18.86;45.93
54248;BME280;40161;39.768;2.722;2023-03-16T12:45:10;101198.47;;;18.77;45.09
54248;BME280;40161;39.768;2.722;2023-03-16T12:50:28;101217.34;;;19.00;46.58
54248;BME280;40161;39.768;2.722;2023-03-16T12:52:54;101214.19;;;18.94;49.33
54248;BME280;40161;39.768;2.722;2023-03-16T12:55:25;101192.13;;;18.77;47.75
54248;BME280;40161;39.768;2.722;2023-03-16T12:58:06;101192.44;;;18.82;50.55
54248;BME280;40161;39.768;2.722;2023-03-16T13:00:39;101219.38;;;18.96;49.72
54248;BME280;40161;39.768;2.722;2023-03-16T13:03:19;101228.47;;;19.00;48.52
54248;BME280;40161;39.768;2.722;2023-03-16T13:05:50;101203.47;;;18.96;48.62
54248;BME280;40161;39.768;2.722;2023-03-16T13:08:18;101192.44;;;18.82;48.20
54248;BME280;40161;39.768;2.722;2023-03-16T13:13:26;101222.50;;;18.98;49.93
54248;BME280;40161;39.768;2.722;2023-03-16T13:16:05;101225.59;;;19.07;51.90
54248;BME280;40161;39.768;2.722;2023-03-16T13:18:35;101236.81;;;19.00;55.06
54248;BME280;40161;39.768;2.722;2023-03-16T13:21:58;101212.09;;;18.57;57.48
54248;BME280;40161;39.768;2.722;2023-03-16T13:24:21;101203.91;;;18.39;57.38
54248;BME280;40161;39.768;2.722;2023-03-16T13:26:53;101229.63;;;18.50;58.08
54248;BME280;40161;39.768;2.722;2023-03-16T13:31:44;101209.19;;;18.19;59.07
54248;BME280;40161;39.768;2.722;2023-03-16T13:34:26;101243.22;;;18.38;59.37
54248;BME280;40161;39.768;2.722;2023-03-16T13:36:55;101234.91;;;18.34;58.60
54248;BME280;40161;39.768;2.722;2023-03-16T13:39:25;101191.81;;;18.08;57.73
54248;BME280;40161;39.768;2.722;2023-03-16T13:42:17;101217.50;;;18.23;58.60
54248;BME280;40161;39.768;2.722;2023-03-16T13:44:43;101173.22;;;17.98;56.88
54248;BME280;40161;39.768;2.722;2023-03-16T13:47:13;101202.88;;;18.15;57.46
54248;BME280;40161;39.768;2.722;2023-03-16T13:49:54;101176.34;;;18.11;56.39
54248;BME280;40161;39.768;2.722;2023-03-16T13:52:31;101187.38;;;18.21;55.47
54248;BME280;40161;39.768;2.722;2023-03-16T13:54:59;101189.34;;;18.24;55.89
54248;BME280;40161;39.768;2.722;2023-03-16T13:57:34;101181.78;;;18.25;54.17
54248;BME280;40161;39.768;2.722;2023-03-16T14:00:19;101175.00;;;18.30;54.73
54248;BME280;40161;39.768;2.722;2023-03-16T14:02:50;101133.84;;;18.17;54.72
54248;BME280;40161;39.768;2.722;2023-03-16T14:05:32;101163.03;;;18.36;53.10
54248;BME280;40161;39.768;2.722;2023-03-16T14:07:59;101131.78;;;18.25;51.14
54248;BME280;40161;39.768;2.722;2023-03-16T14:10:30;101155.09;;;18.38;51.73